Nippon Maru — JNNU — position and weather

sailwx.info

Track history (hours):
 
Tides and Currents Weather Stations Pressure Air Temp Water Temp Dewpoint Dewpoint Depression Visibility Wind Speed Wind Dir Waves Ship Positions

Nippon Maru

Last reported at 2017-Sep-21 18:23 UTC. Time now 2017-Sep-22 06:15 UTC.
Position N 34°07' E 134°57'.

Length 166 m; draft 6.5 m.

Type: Passenger vessel. MMSI: 431302000.

Date/timePositionNaut miles runAvg speedWind from/ knotsBaromVisibWave heightAir tempDewpointWater temp
2017-Sep-21 18:23N 34°07' E 134°57'718.5
2017-Sep-21 18:00N 34°14' E 134°58'1018.6
2017-Sep-21 17:29N 34°23' E 135°00'918.1
2017-Sep-21 17:00N 34°32' E 135°02'712.7
2017-Sep-21 16:29N 34°36' E 134°56'918.1
2017-Sep-21 15:59N 34°32' E 134°46'  
2017-Sep-18 12:56N 34°56' E 139°29'716.9
2017-Sep-18 12:30N 35°01' E 139°36'917.4
2017-Sep-18 12:00N 35°07' E 139°44'815.2
2017-Sep-18 11:30N 35°14' E 139°46'612.8
2017-Sep-18 11:00N 35°20' E 139°42'611.5
2017-Sep-18 10:30N 35°25' E 139°45'612.8
2017-Sep-18 10:00N 35°29' E 139°51'510.7
2017-Sep-18 09:30N 35°34' E 139°48'5 9.2
2017-Sep-18 09:00N 35°39' E 139°46'0 0.0
2017-Sep-18 08:30N 35°39' E 139°46'0 0.0
2017-Sep-18 08:00N 35°39' E 139°46'0 0.0
2017-Sep-18 07:30N 35°39' E 139°46'0 0.0
2017-Sep-18 07:00N 35°39' E 139°46'0 0.0
2017-Sep-18 06:30N 35°39' E 139°46'0 0.0
2017-Sep-18 05:57N 35°39' E 139°46'0 0.0
2017-Sep-18 05:24N 35°39' E 139°46'0 0.0
2017-Sep-18 05:00N 35°39' E 139°46'0 0.0
2017-Sep-18 04:24N 35°39' E 139°46'0 0.0
2017-Sep-18 03:29N 35°39' E 139°46'0 0.0
2017-Sep-18 02:59N 35°39' E 139°46'0 0.0
2017-Sep-18 02:29N 35°39' E 139°46'0 0.0
2017-Sep-18 01:56N 35°39' E 139°46'0 0.0
2017-Sep-18 01:31N 35°39' E 139°46'0 0.0
2017-Sep-18 01:01N 35°39' E 139°46'1 1.1
2017-Sep-18 00:30N 35°38' E 139°46'611.3
2017-Sep-18 00:01N 35°34' E 139°50'3 6.6
2017-Sep-17 23:30N 35°31' E 139°52'2 4.5
2017-Sep-17 23:00N 35°29' E 139°52'3 5.9
2017-Sep-17 22:30N 35°27' E 139°49'3 5.8
2017-Sep-17 22:00N 35°25' E 139°47'2 3.7
2017-Sep-17 21:30N 35°26' E 139°46'2 3.5
2017-Sep-17 21:00N 35°27' E 139°48'1 2.6
2017-Sep-17 20:31N 35°28' E 139°49'1 2.8
2017-Sep-17 20:01N 35°29' E 139°51'2 3.2
2017-Sep-17 19:30N 35°30' E 139°52'3 6.4
2017-Sep-17 19:00N 35°27' E 139°50'3 5.1
2017-Sep-17 18:31N 35°27' E 139°47'2 3.2
2017-Sep-17 18:01N 35°28' E 139°48'2 3.3
2017-Sep-17 17:31N 35°29' E 139°50'2 4.1
2017-Sep-17 17:00N 35°30' E 139°52'4 9.0
2017-Sep-17 16:30N 35°26' E 139°49'3 5.5
2017-Sep-17 16:01N 35°26' E 139°45'2 3.4
2017-Sep-17 15:30N 35°26' E 139°43'2 3.2
2017-Sep-17 15:00N 35°27' E 139°45'2 3.2
2017-Sep-17 14:31N 35°28' E 139°46'2 3.6
2017-Sep-17 14:01N 35°28' E 139°49'2 3.9
2017-Sep-17 13:30N 35°29' E 139°51'2 3.9
2017-Sep-17 13:00N 35°30' E 139°52'2 4.1
2017-Sep-17 12:30N 35°32' E 139°54'1 2.7
2017-Sep-17 11:59N 35°31' E 139°54'2 4.7
2017-Sep-17 11:30N 35°29' E 139°52'2 4.2
2017-Sep-17 11:01N 35°27' E 139°50'3 5.0
2017-Sep-17 10:31N 35°26' E 139°48'2 5.0
2017-Sep-17 10:01N 35°24' E 139°46'3 5.6
2017-Sep-17 09:31N 35°21' E 139°45'3 5.3
2017-Sep-17 09:01N 35°19' E 139°44'4 8.1
2017-Sep-17 08:30N 35°15' E 139°47'2 5.0
2017-Sep-17 08:01N 35°13' E 139°47'2 4.7
2017-Sep-17 07:31N 35°10' E 139°47'2 4.1
2017-Sep-17 07:00N 35°08' E 139°46'2 4.7
2017-Sep-17 06:30N 35°06' E 139°45'2 5.0
2017-Sep-17 06:00N 35°04' E 139°45'2 5.0
2017-Sep-17 05:30N 35°01' E 139°43'2 4.5
2017-Sep-17 05:00N 34°59' E 139°42'2 3.8
2017-Sep-17 04:30N 34°57' E 139°42'2 3.5
2017-Sep-17 04:00N 34°56' E 139°43'2 3.8
2017-Sep-17 03:30N 34°55' E 139°45'3 6.3
2017-Sep-17 03:00N 34°53' E 139°48'1011.5
2017-Sep-17 02:06N 34°54' E 140°00'311.4
2017-Sep-17 01:51N 34°55' E 140°04'  
Track history (hours):
 
Tides and Currents Weather Stations Pressure Air Temp Water Temp Dewpoint Dewpoint Depression Visibility Wind Speed Wind Dir Waves Ship Positions

Nippon Maru

Last reported at 2017-Sep-21 18:23 UTC. Time now 2017-Sep-22 06:15 UTC.
Position N 34°07' E 134°57'.

Length 166 m; draft 6.5 m.

Type: Passenger vessel. MMSI: 431302000.

Date/timePositionNaut miles runAvg speedWind from/ knotsBaromVisibWave heightAir tempDewpointWater temp
2017-Sep-21 18:23N 34°07' E 134°57'718.5
2017-Sep-21 18:00N 34°14' E 134°58'1018.6
2017-Sep-21 17:29N 34°23' E 135°00'918.1
2017-Sep-21 17:00N 34°32' E 135°02'712.7
2017-Sep-21 16:29N 34°36' E 134°56'918.1
2017-Sep-21 15:59N 34°32' E 134°46'  
2017-Sep-18 12:56N 34°56' E 139°29'716.9
2017-Sep-18 12:30N 35°01' E 139°36'917.4
2017-Sep-18 12:00N 35°07' E 139°44'815.2
2017-Sep-18 11:30N 35°14' E 139°46'612.8
2017-Sep-18 11:00N 35°20' E 139°42'611.5
2017-Sep-18 10:30N 35°25' E 139°45'612.8
2017-Sep-18 10:00N 35°29' E 139°51'510.7
2017-Sep-18 09:30N 35°34' E 139°48'5 9.2
2017-Sep-18 09:00N 35°39' E 139°46'0 0.0
2017-Sep-18 08:30N 35°39' E 139°46'0 0.0
2017-Sep-18 08:00N 35°39' E 139°46'0 0.0
2017-Sep-18 07:30N 35°39' E 139°46'0 0.0
2017-Sep-18 07:00N 35°39' E 139°46'0 0.0
2017-Sep-18 06:30N 35°39' E 139°46'0 0.0
2017-Sep-18 05:57N 35°39' E 139°46'0 0.0
2017-Sep-18 05:24N 35°39' E 139°46'0 0.0
2017-Sep-18 05:00N 35°39' E 139°46'0 0.0
2017-Sep-18 04:24N 35°39' E 139°46'0 0.0
2017-Sep-18 03:29N 35°39' E 139°46'0 0.0
2017-Sep-18 02:59N 35°39' E 139°46'0 0.0
2017-Sep-18 02:29N 35°39' E 139°46'0 0.0
2017-Sep-18 01:56N 35°39' E 139°46'0 0.0
2017-Sep-18 01:31N 35°39' E 139°46'0 0.0
2017-Sep-18 01:01N 35°39' E 139°46'1 1.1
2017-Sep-18 00:30N 35°38' E 139°46'611.3
2017-Sep-18 00:01N 35°34' E 139°50'3 6.6
2017-Sep-17 23:30N 35°31' E 139°52'2 4.5
2017-Sep-17 23:00N 35°29' E 139°52'3 5.9
2017-Sep-17 22:30N 35°27' E 139°49'3 5.8
2017-Sep-17 22:00N 35°25' E 139°47'2 3.7
2017-Sep-17 21:30N 35°26' E 139°46'2 3.5
2017-Sep-17 21:00N 35°27' E 139°48'1 2.6
2017-Sep-17 20:31N 35°28' E 139°49'1 2.8
2017-Sep-17 20:01N 35°29' E 139°51'2 3.2
2017-Sep-17 19:30N 35°30' E 139°52'3 6.4
2017-Sep-17 19:00N 35°27' E 139°50'3 5.1
2017-Sep-17 18:31N 35°27' E 139°47'2 3.2
2017-Sep-17 18:01N 35°28' E 139°48'2 3.3
2017-Sep-17 17:31N 35°29' E 139°50'2 4.1
2017-Sep-17 17:00N 35°30' E 139°52'4 9.0
2017-Sep-17 16:30N 35°26' E 139°49'3 5.5
2017-Sep-17 16:01N 35°26' E 139°45'2 3.4
2017-Sep-17 15:30N 35°26' E 139°43'2 3.2
2017-Sep-17 15:00N 35°27' E 139°45'2 3.2
2017-Sep-17 14:31N 35°28' E 139°46'2 3.6
2017-Sep-17 14:01N 35°28' E 139°49'2 3.9
2017-Sep-17 13:30N 35°29' E 139°51'2 3.9
2017-Sep-17 13:00N 35°30' E 139°52'2 4.1
2017-Sep-17 12:30N 35°32' E 139°54'1 2.7
2017-Sep-17 11:59N 35°31' E 139°54'2 4.7
2017-Sep-17 11:30N 35°29' E 139°52'2 4.2
2017-Sep-17 11:01N 35°27' E 139°50'3 5.0
2017-Sep-17 10:31N 35°26' E 139°48'2 5.0
2017-Sep-17 10:01N 35°24' E 139°46'3 5.6
2017-Sep-17 09:31N 35°21' E 139°45'3 5.3
2017-Sep-17 09:01N 35°19' E 139°44'4 8.1
2017-Sep-17 08:30N 35°15' E 139°47'2 5.0
2017-Sep-17 08:01N 35°13' E 139°47'2 4.7
2017-Sep-17 07:31N 35°10' E 139°47'2 4.1
2017-Sep-17 07:00N 35°08' E 139°46'2 4.7
2017-Sep-17 06:30N 35°06' E 139°45'2 5.0
2017-Sep-17 06:00N 35°04' E 139°45'2 5.0
2017-Sep-17 05:30N 35°01' E 139°43'2 4.5
2017-Sep-17 05:00N 34°59' E 139°42'2 3.8
2017-Sep-17 04:30N 34°57' E 139°42'2 3.5
2017-Sep-17 04:00N 34°56' E 139°43'2 3.8
2017-Sep-17 03:30N 34°55' E 139°45'3 6.3
2017-Sep-17 03:00N 34°53' E 139°48'1011.5
2017-Sep-17 02:06N 34°54' E 140°00'311.4
2017-Sep-17 01:51N 34°55' E 140°04'  

Dump ship's entire track history